Back to Top

Language: 

My Weather Underground Personal Weather Station Historical Data with Graphs...

Delerius Weather Station Historical Data
 
Daily Summary for August 15, 2018 Units:  Metric    English   Both
« Previous Day
Next Day »
Daily Weekly Monthly Yearly Custom
  Current: High: Low: Average:
Temperature: 24 °C 24 °C 16.9 °C 18.8 °C
Dew Point: 16.5 °C 16.9 °C 14.3 °C 15.1 °C
Humidity: 63 % 85 % 63 % 79 %
Wind Speed: 20.9 km/h 27.4 km/h 3.2 km/h 13.4 km/h
Wind Gust: 37 km/h 45.1 km/h - -
Wind:WSW - - SW
Pressure: 1012.4 hPa 1014.4 hPa 1012.4 hPa -
Precipitation: 0 mm      
Historical Graphs
 
 
Tabular Data for August 15, 2018
Time Temperature Dew Point Pressure Wind Wind Speed Wind Gust Humidity Rainfall Rate (Hourly) solar Conditions
00:04 18.2 °C 15.1 °C 1014.4 hPa WSW 11.3 km/h 14.5 km/h 82 % 0 mm 0.00 W/m2
00:09 18.1 °C 15 °C 1014.4 hPa WSW 9.7 km/h 14.5 km/h 82 % 0 mm 0.00 W/m2
00:15 18 °C 14.9 °C 1014.4 hPa WSW 8 km/h 11.3 km/h 82 % 0 mm 0.00 W/m2
00:20 17.9 °C 14.8 °C 1014.4 hPa WSW 6.4 km/h 9.7 km/h 82 % 0 mm 0.00 W/m2
00:25 17.8 °C 14.9 °C 1014.4 hPa West 6.4 km/h 12.9 km/h 83 % 0 mm 0.00 W/m2
00:30 17.8 °C 14.9 °C 1014.4 hPa West 6.4 km/h 11.3 km/h 83 % 0 mm 0.00 W/m2
00:35 17.8 °C 14.9 °C 1014.4 hPa West 9.7 km/h 17.7 km/h 83 % 0 mm 0.00 W/m2
00:40 17.8 °C 14.9 °C 1014.4 hPa West 9.7 km/h 14.5 km/h 83 % 0 mm 0.00 W/m2
00:45 17.8 °C 14.7 °C 1014.4 hPa West 11.3 km/h 17.7 km/h 82 % 0 mm 0.00 W/m2
00:50 17.8 °C 14.7 °C 1014.4 hPa WSW 9.7 km/h 17.7 km/h 82 % 0 mm 0.00 W/m2
00:55 17.9 °C 14.8 °C 1014.4 hPa WSW 9.7 km/h 16.1 km/h 82 % 0 mm 0.00 W/m2
00:59 17.9 °C 14.8 °C 1014.4 hPa WSW 14.5 km/h 22.5 km/h 82 % 0 mm 0.00 W/m2
01:04 17.9 °C 14.8 °C 1014.4 hPa WSW 12.9 km/h 17.7 km/h 82 % 0 mm 0.00 W/m2
01:09 18 °C 14.9 °C 1014.4 hPa WSW 16.1 km/h 19.3 km/h 82 % 0 mm 0.00 W/m2
01:14 17.9 °C 14.8 °C 1014.4 hPa WSW 11.3 km/h 19.3 km/h 82 % 0 mm 0.00 W/m2
01:19 17.9 °C 14.6 °C 1014.4 hPa West 9.7 km/h 16.1 km/h 81 % 0 mm 0.00 W/m2
01:24 17.9 °C 14.8 °C 1014.4 hPa WSW 11.3 km/h 17.7 km/h 82 % 0 mm 0.00 W/m2
01:29 17.8 °C 14.7 °C 1014.4 hPa West 14.5 km/h 22.5 km/h 82 % 0 mm 0.00 W/m2
01:34 17.8 °C 14.5 °C 1014.4 hPa West 12.9 km/h 17.7 km/h 81 % 0 mm 0.00 W/m2
01:39 17.7 °C 14.6 °C 1014.4 hPa WSW 11.3 km/h 16.1 km/h 82 % 0 mm 0.00 W/m2
01:44 17.7 °C 14.6 °C 1014.1 hPa WSW 9.7 km/h 17.7 km/h 82 % 0 mm 0.00 W/m2
01:49 17.6 °C 14.5 °C 1014.1 hPa WSW 11.3 km/h 17.7 km/h 82 % 0 mm 0.00 W/m2
01:54 17.5 °C 14.4 °C 1014.1 hPa WSW 11.3 km/h 19.3 km/h 82 % 0 mm 0.00 W/m2
01:59 17.4 °C 14.5 °C 1014.1 hPa WSW 14.5 km/h 20.9 km/h 83 % 0 mm 0.00 W/m2
02:04 17.4 °C 14.3 °C 1014.1 hPa WSW 9.7 km/h 16.1 km/h 82 % 0 mm 0.00 W/m2
02:09 17.4 °C 14.5 °C 1014.1 hPa WSW 12.9 km/h 17.7 km/h 83 % 0 mm 0.00 W/m2
02:14 17.5 °C 14.6 °C 1014.1 hPa WSW 14.5 km/h 20.9 km/h 83 % 0 mm 0.00 W/m2
02:19 17.6 °C 14.5 °C 1014.1 hPa West 12.9 km/h 20.9 km/h 82 % 0 mm 0.00 W/m2
02:24 17.6 °C 14.5 °C 1014.1 hPa WSW 14.5 km/h 20.9 km/h 82 % 0 mm 0.00 W/m2
02:29 17.6 °C 14.5 °C 1014.1 hPa West 11.3 km/h 17.7 km/h 82 % 0 mm 0.00 W/m2
02:34 17.6 °C 14.5 °C 1014.1 hPa West 11.3 km/h 20.9 km/h 82 % 0 mm 0.00 W/m2
02:39 17.7 °C 14.6 °C 1014.1 hPa WSW 14.5 km/h 20.9 km/h 82 % 0 mm 0.00 W/m2
02:44 17.7 °C 14.6 °C 1014.1 hPa WSW 12.9 km/h 19.3 km/h 82 % 0 mm 0.00 W/m2
02:49 17.7 °C 14.6 °C 1014.1 hPa WSW 16.1 km/h 24.1 km/h 82 % 0 mm 0.00 W/m2
02:54 17.7 °C 14.6 °C 1014.1 hPa WSW 16.1 km/h 20.9 km/h 82 % 0 mm 0.00 W/m2
02:59 17.7 °C 14.6 °C 1014.1 hPa West 17.7 km/h 25.7 km/h 82 % 0 mm 0.00 W/m2
03:04 17.7 °C 14.6 °C 1014.1 hPa West 14.5 km/h 22.5 km/h 82 % 0 mm 0.00 W/m2
03:09 17.7 °C 14.6 °C 1014.1 hPa WSW 16.1 km/h 25.7 km/h 82 % 0 mm 0.00 W/m2
03:14 17.7 °C 14.6 °C 1014.1 hPa WSW 12.9 km/h 17.7 km/h 82 % 0 mm 0.00 W/m2
03:19 17.7 °C 14.6 °C 1014.1 hPa WSW 16.1 km/h 20.9 km/h 82 % 0 mm 0.00 W/m2
03:24 17.7 °C 14.6 °C 1014.1 hPa WSW 17.7 km/h 29 km/h 82 % 0 mm 0.00 W/m2
03:29 17.7 °C 14.6 °C 1014.1 hPa WSW 14.5 km/h 22.5 km/h 82 % 0 mm 0.00 W/m2
03:34 17.6 °C 14.5 °C 1014.1 hPa WSW 12.9 km/h 17.7 km/h 82 % 0 mm 0.00 W/m2
03:39 17.6 °C 14.5 °C 1013.8 hPa WSW 14.5 km/h 19.3 km/h 82 % 0 mm 0.00 W/m2
03:44 17.6 °C 14.5 °C 1014.1 hPa WSW 16.1 km/h 24.1 km/h 82 % 0 mm 0.00 W/m2
03:49 17.6 °C 14.5 °C 1014.1 hPa WSW 14.5 km/h 20.9 km/h 82 % 0 mm 0.00 W/m2
03:54 17.5 °C 14.4 °C 1014.1 hPa WSW 14.5 km/h 25.7 km/h 82 % 0 mm 0.00 W/m2
03:59 17.4 °C 14.3 °C 1014.1 hPa WSW 17.7 km/h 25.7 km/h 82 % 0 mm 0.00 W/m2
04:04 17.4 °C 14.3 °C 1014.1 hPa WSW 16.1 km/h 24.1 km/h 82 % 0 mm 0.00 W/m2
04:09 17.3 °C 14.4 °C 1014.1 hPa WSW 14.5 km/h 20.9 km/h 83 % 0 mm 0.00 W/m2
04:14 17.3 °C 14.4 °C 1014.1 hPa WSW 12.9 km/h 20.9 km/h 83 % 0 mm 0.00 W/m2
04:19 17.2 °C 14.3 °C 1013.8 hPa WSW 14.5 km/h 24.1 km/h 83 % 0 mm 0.00 W/m2
04:24 17.2 °C 14.3 °C 1013.8 hPa WSW 12.9 km/h 24.1 km/h 83 % 0 mm 0.00 W/m2
04:29 17.1 °C 14.4 °C 1013.8 hPa WSW 11.3 km/h 19.3 km/h 84 % 0 mm 0.00 W/m2
04:34 17.1 °C 14.4 °C 1013.8 hPa SW 14.5 km/h 20.9 km/h 84 % 0 mm 0.00 W/m2
04:39 17.1 °C 14.4 °C 1013.8 hPa SW 14.5 km/h 20.9 km/h 84 % 0 mm 0.00 W/m2
04:44 17 °C 14.3 °C 1013.8 hPa SW 16.1 km/h 24.1 km/h 84 % 0 mm 0.00 W/m2
04:49 17 °C 14.3 °C 1013.8 hPa SW 14.5 km/h 19.3 km/h 84 % 0 mm 0.00 W/m2
04:54 17 °C 14.3 °C 1013.8 hPa SW 14.5 km/h 22.5 km/h 84 % 0 mm 0.00 W/m2
04:59 16.9 °C 14.3 °C 1013.8 hPa SW 14.5 km/h 20.9 km/h 85 % 0 mm 0.00 W/m2
05:04 16.9 °C 14.3 °C 1013.8 hPa SW 14.5 km/h 22.5 km/h 85 % 0 mm 0.00 W/m2
05:09 16.9 °C 14.3 °C 1013.8 hPa SW 16.1 km/h 22.5 km/h 85 % 0 mm 0.00 W/m2
05:14 16.9 °C 14.3 °C 1013.8 hPa SW 16.1 km/h 22.5 km/h 85 % 0 mm 0.00 W/m2
05:19 16.9 °C 14.3 °C 1013.8 hPa SW 14.5 km/h 20.9 km/h 85 % 0 mm 0.00 W/m2
05:24 16.9 °C 14.3 °C 1013.8 hPa SW 14.5 km/h 17.7 km/h 85 % 0 mm 0.00 W/m2
05:29 16.9 °C 14.3 °C 1013.8 hPa SSW 12.9 km/h 17.7 km/h 85 % 0 mm 0.00 W/m2
05:34 16.9 °C 14.3 °C 1014.1 hPa SW 14.5 km/h 19.3 km/h 85 % 0 mm 0.00 W/m2
05:39 16.9 °C 14.3 °C 1013.8 hPa SSW 12.9 km/h 19.3 km/h 85 % 0 mm 0.00 W/m2
05:44 16.9 °C 14.3 °C 1014.1 hPa SSW 12.9 km/h 17.7 km/h 85 % 0 mm 0.00 W/m2
05:49 16.9 °C 14.3 °C 1014.1 hPa SSW 8 km/h 12.9 km/h 85 % 0 mm 0.00 W/m2
05:54 16.9 °C 14.3 °C 1014.1 hPa SSW 8 km/h 12.9 km/h 85 % 0 mm 0.00 W/m2
05:59 17 °C 14.4 °C 1014.1 hPa South 4.8 km/h 9.7 km/h 85 % 0 mm 5.00 W/m2
06:04 17 °C 14.4 °C 1014.1 hPa South 6.4 km/h 12.9 km/h 85 % 0 mm 9.00 W/m2
06:09 17 °C 14.4 °C 1014.1 hPa South 4.8 km/h 9.7 km/h 85 % 0 mm 11.00 W/m2
06:14 17.1 °C 14.6 °C 1013.8 hPa South 6.4 km/h 9.7 km/h 85 % 0 mm 14.00 W/m2
06:19 17 °C 14.4 °C 1013.8 hPa South 8 km/h 12.9 km/h 85 % 0 mm 16.00 W/m2
06:24 17.1 °C 14.6 °C 1013.8 hPa South 6.4 km/h 9.7 km/h 85 % 0 mm 18.00 W/m2
06:29 17.1 °C 14.6 °C 1013.8 hPa South 4.8 km/h 8 km/h 85 % 0 mm 16.00 W/m2
06:34 17.1 °C 14.6 °C 1013.8 hPa SSE 6.4 km/h 14.5 km/h 85 % 0 mm 21.00 W/m2
06:39 17.1 °C 14.6 °C 1013.8 hPa SSE 6.4 km/h 11.3 km/h 85 % 0 mm 28.00 W/m2
06:44 17.1 °C 14.6 °C 1013.8 hPa South 6.4 km/h 12.9 km/h 85 % 0 mm 33.00 W/m2
06:49 17.1 °C 14.6 °C 1013.8 hPa SSW 8 km/h 12.9 km/h 85 % 0 mm 32.00 W/m2
06:54 17.2 °C 14.4 °C 1013.8 hPa SSW 8 km/h 12.9 km/h 84 % 0 mm 33.00 W/m2
06:59 17.2 °C 14.4 °C 1013.8 hPa SSW 8 km/h 12.9 km/h 84 % 0 mm 35.00 W/m2
07:04 17.3 °C 14.6 °C 1013.8 hPa South 8 km/h 12.9 km/h 84 % 0 mm 32.00 W/m2
07:09 17.3 °C 14.6 °C 1013.8 hPa South 9.7 km/h 12.9 km/h 84 % 0 mm 37.00 W/m2
07:14 17.4 °C 14.5 °C 1013.8 hPa SSW 9.7 km/h 12.9 km/h 83 % 0 mm 44.00 W/m2
07:19 17.4 °C 14.5 °C 1013.4 hPa SSW 11.3 km/h 14.5 km/h 83 % 0 mm 46.00 W/m2
07:24 17.5 °C 14.6 °C 1013.8 hPa SSW 11.3 km/h 17.7 km/h 83 % 0 mm 35.00 W/m2
07:29 17.5 °C 14.6 °C 1013.4 hPa SSW 9.7 km/h 17.7 km/h 83 % 0 mm 93.00 W/m2
07:34 17.5 °C 14.6 °C 1013.4 hPa SSW 12.9 km/h 22.5 km/h 83 % 0 mm 105.00 W/m2
07:39 17.6 °C 14.9 °C 1013.4 hPa SSW 4.8 km/h 9.7 km/h 84 % 0 mm 121.00 W/m2
07:44 17.7 °C 14.8 °C 1013.4 hPa SSW 6.4 km/h 11.3 km/h 83 % 0 mm 214.00 W/m2
07:49 17.9 °C 14.9 °C 1013.4 hPa SSW 6.4 km/h 11.3 km/h 83 % 0 mm 160.00 W/m2
07:54 18.1 °C 15 °C 1013.4 hPa SW 6.4 km/h 12.9 km/h 82 % 0 mm 299.00 W/m2
07:59 18.3 °C 15.2 °C 1013.4 hPa SSW 8 km/h 11.3 km/h 82 % 0 mm 360.00 W/m2
08:04 18.6 °C 15.3 °C 1013.4 hPa SSW 3.2 km/h 8 km/h 81 % 0 mm 360.00 W/m2
08:09 18.9 °C 15.2 °C 1013.4 hPa SSW 8 km/h 12.9 km/h 79 % 0 mm 353.00 W/m2
08:14 19.2 °C 15.3 °C 1013.4 hPa SW 6.4 km/h 12.9 km/h 78 % 0 mm 288.00 W/m2
08:19 19.3 °C 14.9 °C 1013.4 hPa WSW 11.3 km/h 17.7 km/h 76 % 0 mm 288.00 W/m2
08:24 19.4 °C 14.8 °C 1013.4 hPa SW 12.9 km/h 19.3 km/h 75 % 0 mm 276.00 W/m2
08:29 19.6 °C 14.8 °C 1013.4 hPa WSW 14.5 km/h 22.5 km/h 74 % 0 mm 264.00 W/m2
08:34 19.6 °C 14.8 °C 1013.4 hPa WSW 14.5 km/h 19.3 km/h 74 % 0 mm 153.00 W/m2
08:39 19.6 °C 15.1 °C 1013.4 hPa West 12.9 km/h 19.3 km/h 75 % 0 mm 116.00 W/m2
08:44 19.6 °C 15.1 °C 1013.4 hPa WSW 12.9 km/h 17.7 km/h 75 % 0 mm 111.00 W/m2
08:49 19.6 °C 15.1 °C 1013.4 hPa West 12.9 km/h 20.9 km/h 75 % 0 mm 105.00 W/m2
08:54 19.6 °C 15.1 °C 1013.4 hPa SW 12.9 km/h 20.9 km/h 75 % 0 mm 165.00 W/m2
08:59 19.6 °C 15.1 °C 1013.4 hPa West 17.7 km/h 25.7 km/h 75 % 0 mm 179.00 W/m2
09:04 19.6 °C 15.1 °C 1013.4 hPa WSW 11.3 km/h 17.7 km/h 75 % 0 mm 185.00 W/m2
09:09 19.7 °C 15.2 °C 1013.4 hPa WSW 14.5 km/h 20.9 km/h 75 % 0 mm 186.00 W/m2
09:14 19.7 °C 15.2 °C 1013.4 hPa SW 16.1 km/h 24.1 km/h 75 % 0 mm 139.00 W/m2
09:19 19.6 °C 15.3 °C 1013.1 hPa SW 14.5 km/h 24.1 km/h 76 % 0 mm 132.00 W/m2
09:24 19.6 °C 15.3 °C 1013.4 hPa SW 14.5 km/h 20.9 km/h 76 % 0 mm 135.00 W/m2
09:29 19.6 °C 15.3 °C 1013.1 hPa WSW 14.5 km/h 24.1 km/h 76 % 0 mm 183.00 W/m2
09:34 19.6 °C 15.3 °C 1013.1 hPa WSW 12.9 km/h 25.7 km/h 76 % 0 mm 171.00 W/m2
09:39 19.6 °C 15.4 °C 1012.8 hPa WSW 14.5 km/h 22.5 km/h 77 % 0 mm 179.00 W/m2
09:44 19.8 °C 15.7 °C 1013.1 hPa West 14.5 km/h 29 km/h 77 % 0 mm 425.00 W/m2
09:49 20.1 °C 15.7 °C 1013.1 hPa WSW 12.9 km/h 19.3 km/h 76 % 0 mm 366.00 W/m2
09:54 20.4 °C 16 °C 1013.1 hPa WSW 11.3 km/h 22.5 km/h 76 % 0 mm 526.00 W/m2
09:59 20.7 °C 15.9 °C 1013.1 hPa SW 17.7 km/h 33.8 km/h 74 % 0 mm 330.00 W/m2
10:04 20.8 °C 16 °C 1013.1 hPa WSW 17.7 km/h 30.6 km/h 74 % 0 mm 795.00 W/m2
10:09 21.1 °C 16.3 °C 1013.1 hPa WSW 16.1 km/h 20.9 km/h 74 % 0 mm 276.00 W/m2
10:14 21.2 °C 16.2 °C 1013.1 hPa West 14.5 km/h 19.3 km/h 73 % 0 mm 257.00 W/m2
10:19 21.2 °C 16.2 °C 1013.4 hPa West 17.7 km/h 30.6 km/h 73 % 0 mm 345.00 W/m2
10:24 21.3 °C 16.3 °C 1013.4 hPa West 17.7 km/h 25.7 km/h 73 % 0 mm 420.00 W/m2
10:29 21.4 °C 16.3 °C 1013.1 hPa WSW 12.9 km/h 19.3 km/h 73 % 0 mm 420.00 W/m2
10:34 21.6 °C 16.3 °C 1013.1 hPa West 14.5 km/h 24.1 km/h 72 % 0 mm 408.00 W/m2
10:39 22.1 °C 16.6 °C 1013.1 hPa West 20.9 km/h 40.2 km/h 71 % 0 mm 494.00 W/m2
10:44 22.2 °C 16.2 °C 1013.1 hPa West 20.9 km/h 33.8 km/h 69 % 0 mm 872.00 W/m2
10:49 22.4 °C 16.4 °C 1013.1 hPa SW 17.7 km/h 33.8 km/h 69 % 0 mm 835.00 W/m2
10:54 22.3 °C 16.3 °C 1013.1 hPa WSW 20.9 km/h 37 km/h 69 % 0 mm 870.00 W/m2
10:59 22.4 °C 16.2 °C 1013.1 hPa WSW 20.9 km/h 35.4 km/h 68 % 0 mm 821.00 W/m2
11:04 22.4 °C 16.2 °C 1012.8 hPa SW 14.5 km/h 30.6 km/h 68 % 0 mm 325.00 W/m2
11:09 22.3 °C 16.1 °C 1013.1 hPa WSW 16.1 km/h 22.5 km/h 68 % 0 mm 299.00 W/m2
11:14 22.3 °C 16.1 °C 1013.1 hPa SW 16.1 km/h 25.7 km/h 68 % 0 mm 246.00 W/m2
11:19 22.2 °C 16 °C 1012.8 hPa SW 16.1 km/h 25.7 km/h 68 % 0 mm 248.00 W/m2
11:24 22.2 °C 16 °C 1012.8 hPa WSW 14.5 km/h 20.9 km/h 68 % 0 mm 253.00 W/m2
11:29 22.2 °C 16 °C 1012.8 hPa SW 12.9 km/h 22.5 km/h 68 % 0 mm 223.00 W/m2
11:34 22.1 °C 15.9 °C 1012.8 hPa SW 22.5 km/h 38.6 km/h 68 % 0 mm 236.00 W/m2
11:39 21.8 °C 15.8 °C 1013.1 hPa SW 19.3 km/h 30.6 km/h 69 % 0 mm 237.00 W/m2
11:44 21.8 °C 16.1 °C 1012.8 hPa WSW 16.1 km/h 25.7 km/h 70 % 0 mm 216.00 W/m2
11:49 21.8 °C 16.1 °C 1012.8 hPa SW 16.1 km/h 25.7 km/h 70 % 0 mm 257.00 W/m2
11:54 22.1 °C 16.4 °C 1012.8 hPa WSW 17.7 km/h 30.6 km/h 70 % 0 mm 705.00 W/m2
11:59 22.4 °C 16.4 °C 1012.8 hPa SW 24.1 km/h 32.2 km/h 69 % 0 mm 886.00 W/m2
12:04 22.7 °C 16.5 °C 1012.8 hPa SW 14.5 km/h 30.6 km/h 68 % 0 mm 410.00 W/m2
12:09 22.8 °C 16.6 °C 1012.8 hPa WSW 17.7 km/h 35.4 km/h 68 % 0 mm 399.00 W/m2
12:14 23.1 °C 16.6 °C 1012.4 hPa SW 20.9 km/h 35.4 km/h 67 % 0 mm 912.00 W/m2
12:19 23.4 °C 16.9 °C 1012.4 hPa SSW 20.9 km/h 35.4 km/h 67 % 0 mm 886.00 W/m2
12:24 23.6 °C 16.6 °C 1012.4 hPa SW 22.5 km/h 37 km/h 65 % 0 mm 865.00 W/m2
12:29 24 °C 16.8 °C 1012.4 hPa SW 24.1 km/h 35.4 km/h 64 % 0 mm 911.00 W/m2
12:34 24 °C 16.5 °C 1012.4 hPa SW 25.7 km/h 37 km/h 63 % 0 mm 933.00 W/m2
12:39 23.8 °C 16.3 °C 1012.8 hPa SW 27.4 km/h 45.1 km/h 63 % 0 mm 376.00 W/m2
12:44 24 °C 16.5 °C 1012.4 hPa WSW 20.9 km/h 37 km/h 63 % 0 mm 396.00 W/m2
Delerius-Weather
Compliments of Weather Underground - 1.5 mb

Data updates at regular intervals.